createdAt,value
2022-10-03T00:00:42.626Z,98.47
2022-10-03T00:01:42.831Z,98.47
2022-10-03T00:02:42.282Z,98.47
2022-10-03T00:03:42.232Z,98.47
2022-10-03T00:04:42.209Z,98.58
2022-10-03T00:05:42.533Z,98.58
2022-10-03T00:06:42.177Z,98.58
2022-10-03T00:07:42.165Z,98.58
2022-10-03T00:08:42.154Z,98.47
2022-10-03T00:09:42.153Z,98.47
2022-10-03T00:10:42.399Z,98.58
2022-10-03T00:11:42.358Z,98.58
2022-10-03T00:12:42.104Z,98.58
2022-10-03T00:13:42.091Z,98.58
2022-10-03T00:14:42.091Z,98.47
2022-10-03T00:15:42.519Z,98.47
2022-10-03T00:16:42.056Z,98.52
2022-10-03T00:17:42.040Z,98.52
2022-10-03T00:18:42.040Z,98.52
2022-10-03T00:19:42.014Z,98.52
2022-10-03T00:20:42.381Z,98.52
2022-10-03T00:21:42.351Z,98.52
2022-10-03T00:22:41.981Z,98.52
2022-10-03T00:23:41.963Z,98.67
2022-10-03T00:24:41.956Z,98.57
2022-10-03T00:25:42.274Z,98.62
2022-10-03T00:26:41.930Z,98.62
2022-10-03T00:27:41.900Z,98.62
2022-10-03T00:28:41.902Z,98.62
2022-10-03T00:29:41.880Z,98.83
2022-10-03T00:30:42.317Z,98.68
2022-10-03T00:31:42.337Z,98.68
2022-10-03T00:32:41.858Z,98.68
2022-10-03T00:33:41.829Z,98.68
2022-10-03T00:34:41.821Z,98.58
2022-10-03T00:35:42.252Z,98.68
2022-10-03T00:36:41.801Z,98.63
2022-10-03T00:37:41.787Z,98.63
2022-10-03T00:38:41.777Z,98.63
2022-10-03T00:39:41.758Z,98.63
2022-10-03T00:40:42.125Z,98.63
2022-10-03T00:41:41.997Z,98.58
2022-10-03T00:42:41.725Z,98.58
2022-10-03T00:43:41.707Z,98.58
2022-10-03T00:44:41.701Z,98.58
2022-10-03T00:45:42.027Z,98.58
2022-10-03T00:46:41.734Z,98.58
2022-10-03T00:47:41.666Z,98.58
2022-10-03T00:48:41.651Z,98.58
2022-10-03T00:49:41.639Z,98.58
2022-10-03T00:50:42.055Z,98.58
2022-10-03T00:51:41.826Z,98.58
2022-10-03T00:52:41.601Z,98.58
2022-10-03T00:53:41.586Z,98.58
2022-10-03T00:54:41.584Z,98.54
2022-10-03T00:55:41.985Z,98.54
2022-10-03T00:56:41.544Z,98.54
2022-10-03T00:57:41.534Z,98.54
2022-10-03T00:58:41.524Z,98.54
2022-10-03T00:59:45.054Z,98.54
2022-10-03T01:00:42.898Z,98.54
2022-10-03T01:01:41.796Z,98.54
2022-10-03T01:02:41.464Z,98.49
2022-10-03T01:03:41.475Z,98.60
2022-10-03T01:04:41.444Z,98.60
2022-10-03T01:05:41.953Z,98.49
2022-10-03T01:06:41.421Z,98.60
2022-10-03T01:07:41.407Z,98.49
2022-10-03T01:08:41.401Z,98.49
2022-10-03T01:09:41.386Z,98.49
2022-10-03T01:10:41.791Z,98.49
2022-10-03T01:11:41.739Z,98.49
2022-10-03T01:12:41.349Z,98.49
2022-10-03T01:13:41.338Z,98.49
2022-10-03T01:14:41.333Z,98.49
2022-10-03T01:15:41.819Z,98.45
2022-10-03T01:16:41.293Z,98.45
2022-10-03T01:17:41.282Z,98.45
2022-10-03T01:18:41.270Z,98.45
2022-10-03T01:19:41.259Z,98.45
2022-10-03T01:20:41.830Z,98.45
2022-10-03T01:21:41.626Z,98.45
2022-10-03T01:22:41.221Z,98.55
2022-10-03T01:23:41.206Z,98.55
2022-10-03T01:24:41.189Z,98.45
2022-10-03T01:25:41.537Z,98.45
2022-10-03T01:26:41.178Z,98.45
2022-10-03T01:27:41.160Z,98.49
2022-10-03T01:28:41.148Z,98.45
2022-10-03T01:29:41.137Z,98.49
2022-10-03T01:30:41.685Z,98.49
2022-10-03T01:31:41.362Z,98.49
2022-10-03T01:32:41.097Z,98.49
2022-10-03T01:33:41.079Z,98.49
2022-10-03T01:34:41.071Z,98.49
2022-10-03T01:35:41.459Z,98.49
2022-10-03T01:36:41.047Z,98.49
2022-10-03T01:37:41.036Z,98.49
2022-10-03T01:38:41.026Z,98.60
2022-10-03T01:39:41.008Z,98.49
2022-10-03T01:40:41.375Z,98.49
2022-10-03T01:41:41.435Z,98.49
2022-10-03T01:42:40.975Z,98.49
2022-10-03T01:43:40.955Z,98.49
2022-10-03T01:44:40.961Z,98.49
2022-10-03T01:45:40.935Z,98.49
2022-10-03T01:46:41.376Z,98.60
2022-10-03T01:47:40.916Z,98.55
2022-10-03T01:48:40.907Z,98.55
2022-10-03T01:49:40.894Z,98.55
2022-10-03T01:50:40.877Z,98.55
2022-10-03T01:51:41.655Z,98.45
2022-10-03T01:52:40.853Z,98.49
2022-10-03T01:53:40.834Z,98.49
2022-10-03T01:54:40.844Z,98.49
2022-10-03T01:55:40.805Z,98.49
2022-10-03T01:56:41.194Z,98.49
2022-10-03T01:57:40.787Z,98.49
2022-10-03T01:58:40.779Z,98.49
2022-10-03T01:59:40.761Z,98.49
2022-10-03T02:00:40.786Z,98.49
2022-10-03T02:01:41.557Z,98.49
2022-10-03T02:02:40.730Z,98.49
2022-10-03T02:03:40.713Z,98.60
2022-10-03T02:04:40.704Z,98.49
2022-10-03T02:05:40.691Z,98.60
2022-10-03T02:06:41.099Z,98.60
2022-10-03T02:07:40.660Z,98.60
2022-10-03T02:08:40.654Z,98.49
2022-10-03T02:09:40.640Z,98.49
2022-10-03T02:10:40.633Z,98.54
2022-10-03T02:11:41.416Z,98.54
2022-10-03T02:12:40.601Z,98.54
2022-10-03T02:13:40.586Z,98.65
2022-10-03T02:14:40.581Z,98.65
2022-10-03T02:15:40.584Z,98.60
2022-10-03T02:16:40.596Z,98.60
2022-10-03T02:17:40.959Z,98.65
2022-10-03T02:18:40.526Z,98.65
2022-10-03T02:19:40.515Z,98.65
2022-10-03T02:20:40.509Z,98.60
2022-10-03T02:21:40.718Z,98.60
2022-10-03T02:22:40.899Z,98.65
2022-10-03T02:23:40.468Z,98.65
2022-10-03T02:24:40.450Z,98.65
2022-10-03T02:25:40.438Z,98.65
2022-10-03T02:26:40.430Z,98.65
2022-10-03T02:27:40.830Z,98.65
2022-10-03T02:28:40.409Z,98.65
2022-10-03T02:29:40.398Z,98.65
2022-10-03T02:30:40.378Z,98.65
2022-10-03T02:31:40.640Z,98.65
2022-10-03T02:32:40.723Z,98.65
2022-10-03T02:33:40.346Z,98.65
2022-10-03T02:34:40.335Z,98.65
2022-10-03T02:35:40.326Z,98.65
2022-10-03T02:36:40.316Z,98.65
2022-10-03T02:37:40.687Z,98.65
2022-10-03T02:38:40.290Z,98.65
2022-10-03T02:39:40.265Z,98.65
2022-10-03T02:40:40.262Z,98.65
2022-10-03T02:41:40.515Z,98.65
2022-10-03T02:42:40.569Z,98.65
2022-10-03T02:43:40.213Z,98.65
2022-10-03T02:44:40.243Z,98.65
2022-10-03T02:45:40.255Z,98.65
2022-10-03T02:46:40.190Z,98.65
2022-10-03T02:47:40.591Z,98.65
2022-10-03T02:48:40.153Z,98.65
2022-10-03T02:49:40.145Z,98.65
2022-10-03T02:50:40.131Z,98.65
2022-10-03T02:51:40.539Z,98.65
2022-10-03T02:52:40.531Z,98.65
2022-10-03T02:53:40.091Z,98.65
2022-10-03T02:54:40.087Z,98.65
2022-10-03T02:55:40.064Z,98.65
2022-10-03T02:56:40.061Z,98.65
2022-10-03T02:57:40.451Z,98.65
2022-10-03T02:58:40.030Z,98.65
2022-10-03T02:59:40.016Z,98.65
2022-10-03T03:00:40.041Z,98.65
2022-10-03T03:01:40.444Z,98.65
2022-10-03T03:02:39.979Z,98.65
2022-10-03T03:03:40.370Z,98.65
2022-10-03T03:04:39.955Z,98.65
2022-10-03T03:05:39.939Z,98.65
2022-10-03T03:06:39.927Z,98.69
2022-10-03T03:07:39.917Z,98.69
2022-10-03T03:08:40.318Z,98.69
2022-10-03T03:09:39.887Z,98.58
2022-10-03T03:10:39.882Z,98.69
2022-10-03T03:11:40.168Z,98.69
2022-10-03T03:12:41.534Z,98.74
2022-10-03T03:13:40.222Z,98.74
2022-10-03T03:14:39.827Z,98.63
2022-10-03T03:15:39.815Z,98.74
2022-10-03T03:16:39.866Z,98.63
2022-10-03T03:17:39.795Z,98.68
2022-10-03T03:18:40.126Z,98.78
2022-10-03T03:19:39.764Z,98.78
2022-10-03T03:20:39.757Z,98.78
2022-10-03T03:21:40.015Z,98.78
2022-10-03T03:22:39.734Z,98.78
2022-10-03T03:23:40.064Z,98.78
2022-10-03T03:24:39.695Z,98.78
2022-10-03T03:25:39.689Z,98.88
2022-10-03T03:26:39.681Z,98.78
2022-10-03T03:27:39.676Z,98.88
2022-10-03T03:28:39.995Z,98.88
2022-10-03T03:29:39.658Z,98.88
2022-10-03T03:30:39.635Z,98.88
2022-10-03T03:31:39.923Z,98.83
2022-10-03T03:32:39.610Z,98.83
2022-10-03T03:33:40.016Z,98.83
2022-10-03T03:34:39.575Z,98.83
2022-10-03T03:35:39.566Z,98.83
2022-10-03T03:36:39.554Z,98.83
2022-10-03T03:37:39.541Z,98.83
2022-10-03T03:38:39.960Z,98.83
2022-10-03T03:39:39.515Z,98.83
2022-10-03T03:40:39.502Z,98.83
2022-10-03T03:41:39.621Z,98.83
2022-10-03T03:42:39.488Z,98.83
2022-10-03T03:43:39.882Z,98.83
2022-10-03T03:44:39.451Z,98.83
2022-10-03T03:45:39.481Z,98.83
2022-10-03T03:46:39.435Z,98.83
2022-10-03T03:47:39.413Z,98.83
2022-10-03T03:48:39.845Z,98.74
2022-10-03T03:49:39.380Z,98.74
2022-10-03T03:50:39.387Z,98.83
2022-10-03T03:51:39.556Z,98.83
2022-10-03T03:52:39.349Z,98.78
2022-10-03T03:53:39.767Z,98.88
2022-10-03T03:54:39.328Z,98.88
2022-10-03T03:55:39.309Z,98.78
2022-10-03T03:56:39.298Z,98.88
2022-10-03T03:57:39.288Z,98.88
2022-10-03T03:58:39.687Z,98.99
2022-10-03T03:59:39.266Z,98.94
2022-10-03T04:00:39.289Z,98.83
2022-10-03T04:01:39.491Z,98.83
2022-10-03T04:02:39.291Z,98.83
2022-10-03T04:03:39.651Z,98.83
2022-10-03T04:04:39.205Z,98.83
2022-10-03T04:05:39.175Z,98.83
2022-10-03T04:06:39.174Z,98.83
2022-10-03T04:07:39.155Z,98.83
2022-10-03T04:08:39.458Z,98.78
2022-10-03T04:09:39.127Z,98.78
2022-10-03T04:10:39.125Z,98.78
2022-10-03T04:11:39.435Z,98.72
2022-10-03T04:12:39.096Z,98.83
2022-10-03T04:13:39.515Z,98.83
2022-10-03T04:14:39.073Z,98.83
2022-10-03T04:15:39.070Z,98.83
2022-10-03T04:16:39.107Z,98.83
2022-10-03T04:17:39.032Z,98.83
2022-10-03T04:18:39.383Z,98.83
2022-10-03T04:19:39.014Z,98.83
2022-10-03T04:20:39.002Z,98.87
2022-10-03T04:21:39.269Z,98.87
2022-10-03T04:22:38.974Z,98.87
2022-10-03T04:23:39.262Z,98.87
2022-10-03T04:24:38.945Z,98.97
2022-10-03T04:25:38.933Z,98.97
2022-10-03T04:26:38.947Z,98.97
2022-10-03T04:27:38.910Z,98.93
2022-10-03T04:28:39.310Z,98.93
2022-10-03T04:29:38.890Z,98.93
2022-10-03T04:30:38.871Z,98.93
2022-10-03T04:31:39.132Z,98.93
2022-10-03T04:32:38.858Z,98.93
2022-10-03T04:33:39.188Z,98.93
2022-10-03T04:34:38.829Z,98.93
2022-10-03T04:35:38.804Z,98.93
2022-10-03T04:36:38.789Z,98.93
2022-10-03T04:37:38.780Z,98.93
2022-10-03T04:38:39.099Z,98.99
2022-10-03T04:39:38.762Z,98.99
2022-10-03T04:40:38.738Z,98.99
2022-10-03T04:41:42.712Z,98.99
2022-10-03T04:42:38.716Z,98.99
2022-10-03T04:43:38.708Z,98.99
2022-10-03T04:44:39.004Z,98.99
2022-10-03T04:45:38.752Z,98.99
2022-10-03T04:46:38.675Z,98.99
2022-10-03T04:47:38.667Z,98.99
2022-10-03T04:48:38.635Z,98.99
2022-10-03T04:49:39.052Z,98.99
2022-10-03T04:50:38.604Z,98.99
2022-10-03T04:51:38.813Z,98.99
2022-10-03T04:52:38.596Z,98.99
2022-10-03T04:53:38.575Z,98.99
2022-10-03T04:54:38.823Z,98.99
2022-10-03T04:55:38.546Z,98.99
2022-10-03T04:56:38.551Z,98.99
2022-10-03T04:57:38.533Z,98.99
2022-10-03T04:58:38.518Z,98.99
2022-10-03T04:59:38.934Z,98.99
2022-10-03T05:00:38.549Z,98.88
2022-10-03T05:01:38.664Z,98.99
2022-10-03T05:02:38.551Z,98.99
2022-10-03T05:03:38.454Z,98.99
2022-10-03T05:04:38.895Z,98.99
2022-10-03T05:05:38.430Z,98.99
2022-10-03T05:06:38.415Z,98.99
2022-10-03T05:07:38.400Z,98.94
2022-10-03T05:08:38.400Z,98.94
2022-10-03T05:09:38.671Z,98.94
2022-10-03T05:10:38.370Z,98.94
2022-10-03T05:11:38.668Z,98.94
2022-10-03T05:12:38.371Z,98.94
2022-10-03T05:13:38.318Z,98.94
2022-10-03T05:14:38.693Z,98.94
2022-10-03T05:15:38.301Z,98.94
2022-10-03T05:16:38.342Z,98.94
2022-10-03T05:17:38.279Z,98.94
2022-10-03T05:18:38.257Z,98.94
2022-10-03T05:19:38.609Z,98.94
2022-10-03T05:20:38.232Z,98.94
2022-10-03T05:21:38.441Z,98.94
2022-10-03T05:22:38.199Z,98.94
2022-10-03T05:23:38.208Z,98.94
2022-10-03T05:24:38.620Z,98.94
2022-10-03T05:25:38.174Z,98.94
2022-10-03T05:26:45.044Z,98.94
2022-10-03T05:27:39.147Z,98.94
2022-10-03T05:28:38.133Z,98.94
2022-10-03T05:29:38.557Z,98.94
2022-10-03T05:30:38.098Z,98.94
2022-10-03T05:31:38.403Z,98.94
2022-10-03T05:32:38.082Z,98.94
2022-10-03T05:33:38.072Z,98.94
2022-10-03T05:34:38.480Z,98.94
2022-10-03T05:35:38.037Z,98.94
2022-10-03T05:36:38.037Z,98.94
2022-10-03T05:37:38.030Z,98.94
2022-10-03T05:38:38.006Z,98.94
2022-10-03T05:39:38.304Z,98.94
2022-10-03T05:40:37.988Z,98.94
2022-10-03T05:41:38.338Z,98.94
2022-10-03T05:42:37.963Z,98.94
2022-10-03T05:43:37.949Z,98.94
2022-10-03T05:44:38.373Z,98.94
2022-10-03T05:45:37.971Z,98.83
2022-10-03T05:46:37.894Z,98.94
2022-10-03T05:47:37.886Z,98.94
2022-10-03T05:48:37.874Z,98.94
2022-10-03T05:49:38.313Z,98.90
2022-10-03T05:50:37.853Z,98.90
2022-10-03T05:51:38.030Z,98.90
2022-10-03T05:52:37.829Z,98.90
2022-10-03T05:53:37.821Z,98.79
2022-10-03T05:54:38.135Z,98.90
2022-10-03T05:55:37.791Z,98.90
2022-10-03T05:56:40.892Z,98.79
2022-10-03T05:57:37.766Z,98.79
2022-10-03T05:58:37.761Z,98.79
2022-10-03T05:59:38.092Z,98.79
2022-10-03T06:00:37.725Z,98.79
2022-10-03T06:01:37.930Z,98.79
2022-10-03T06:02:37.829Z,98.79
2022-10-03T06:03:37.697Z,98.79
2022-10-03T06:04:38.060Z,98.79
2022-10-03T06:05:37.659Z,98.69
2022-10-03T06:06:37.648Z,98.69
2022-10-03T06:07:37.643Z,98.79
2022-10-03T06:08:37.628Z,98.83
2022-10-03T06:09:38.060Z,98.74
2022-10-03T06:10:37.606Z,98.74
2022-10-03T06:11:37.886Z,98.74
2022-10-03T06:12:37.588Z,98.74
2022-10-03T06:13:37.579Z,98.74
2022-10-03T06:14:37.988Z,98.83
2022-10-03T06:15:37.601Z,98.69
2022-10-03T06:16:37.529Z,98.74
2022-10-03T06:17:40.995Z,98.69
2022-10-03T06:18:38.506Z,98.63
2022-10-03T06:19:37.936Z,98.63
2022-10-03T06:20:37.476Z,98.74
2022-10-03T06:21:37.674Z,98.58
2022-10-03T06:22:37.447Z,98.69
2022-10-03T06:23:37.444Z,98.69
2022-10-03T06:24:37.435Z,98.69
2022-10-03T06:25:37.655Z,98.58
2022-10-03T06:26:37.405Z,98.58
2022-10-03T06:27:37.395Z,98.54
2022-10-03T06:28:37.467Z,98.54
2022-10-03T06:29:38.046Z,98.44
2022-10-03T06:30:37.628Z,98.44
2022-10-03T06:31:37.350Z,98.44
2022-10-03T06:32:37.323Z,98.39
2022-10-03T06:33:37.334Z,98.39
2022-10-03T06:34:37.303Z,98.29
2022-10-03T06:35:37.637Z,98.24
2022-10-03T06:36:37.273Z,98.14
2022-10-03T06:37:37.261Z,98.10
2022-10-03T06:38:37.250Z,97.89
2022-10-03T06:39:37.241Z,97.69
2022-10-03T06:40:37.459Z,97.69
2022-10-03T06:41:37.529Z,97.49
2022-10-03T06:42:37.192Z,97.17
2022-10-03T06:43:37.193Z,97.13
2022-10-03T06:44:37.176Z,96.83
2022-10-03T06:45:37.442Z,96.72
2022-10-03T06:46:37.186Z,96.42
2022-10-03T06:47:37.135Z,96.36
2022-10-03T06:48:37.109Z,96.36
2022-10-03T06:49:37.151Z,96.26
2022-10-03T06:50:37.304Z,96.26
2022-10-03T06:51:37.090Z,96.26
2022-10-03T06:52:37.061Z,96.30
2022-10-03T06:53:37.062Z,96.30
2022-10-03T06:54:37.046Z,96.30
2022-10-03T06:55:37.411Z,96.41
2022-10-03T06:56:37.009Z,96.45
2022-10-03T06:57:37.008Z,96.55
2022-10-03T06:58:36.988Z,96.51
2022-10-03T06:59:36.983Z,96.61
2022-10-03T07:00:37.233Z,96.61
2022-10-03T07:01:37.530Z,96.55
2022-10-03T07:02:36.992Z,96.51
2022-10-03T07:03:36.925Z,96.51
2022-10-03T07:04:36.908Z,96.51
2022-10-03T07:05:40.681Z,96.51
2022-10-03T07:06:36.877Z,96.51
2022-10-03T07:07:36.878Z,96.51
2022-10-03T07:08:36.858Z,96.51
2022-10-03T07:09:36.858Z,96.51
2022-10-03T07:10:37.260Z,96.51
2022-10-03T07:11:37.104Z,96.51
2022-10-03T07:12:36.806Z,96.36
2022-10-03T07:13:36.800Z,96.36
2022-10-03T07:14:36.776Z,96.11
2022-10-03T07:16:02.895Z,96.11
2022-10-03T07:16:37.764Z,95.90
2022-10-03T07:17:36.746Z,95.80
2022-10-03T07:18:36.743Z,95.65
2022-10-03T07:19:36.717Z,95.56
2022-10-03T07:20:37.137Z,95.56
2022-10-03T07:21:37.115Z,95.51
2022-10-03T07:22:36.679Z,95.20
2022-10-03T07:23:36.675Z,95.00
2022-10-03T07:24:36.646Z,94.85
2022-10-03T07:25:37.203Z,94.65
2022-10-03T07:26:36.625Z,94.65
2022-10-03T07:27:36.610Z,94.60
2022-10-03T07:28:36.656Z,94.71
2022-10-03T07:29:36.581Z,94.50
2022-10-03T07:30:37.013Z,94.20
2022-10-03T07:31:36.955Z,93.99
2022-10-03T07:32:36.541Z,93.99
2022-10-03T07:33:38.975Z,93.79
2022-10-03T07:34:36.534Z,93.99
2022-10-03T07:35:36.504Z,93.99
2022-10-03T07:36:37.115Z,94.09
2022-10-03T07:37:36.484Z,94.20
2022-10-03T07:38:36.465Z,94.09
2022-10-03T07:39:36.456Z,94.15
2022-10-03T07:40:36.432Z,93.95
2022-10-03T07:41:37.255Z,94.05
2022-10-03T07:42:36.420Z,93.85
2022-10-03T07:43:36.398Z,93.74
2022-10-03T07:44:36.390Z,93.74
2022-10-03T07:45:36.389Z,93.80
2022-10-03T07:46:36.849Z,93.80
2022-10-03T07:47:36.352Z,93.70
2022-10-03T07:48:36.335Z,93.60
2022-10-03T07:49:36.327Z,93.50
2022-10-03T07:50:36.336Z,93.35
2022-10-03T07:51:36.657Z,93.25
2022-10-03T07:52:36.277Z,93.05
2022-10-03T07:53:36.294Z,93.05
2022-10-03T07:54:36.258Z,93.15
2022-10-03T07:55:36.253Z,93.15
2022-10-03T07:56:36.788Z,93.15
2022-10-03T07:57:36.219Z,92.90
2022-10-03T07:58:36.208Z,92.70
2022-10-03T07:59:36.188Z,92.90
2022-10-03T08:00:39.802Z,93.01
2022-10-03T08:01:37.074Z,92.86
2022-10-03T08:02:36.177Z,92.76
2022-10-03T08:03:36.190Z,92.41
2022-10-03T08:04:36.125Z,92.21
2022-10-03T08:05:36.107Z,92.41
2022-10-03T08:06:36.535Z,91.90
2022-10-03T08:07:36.087Z,92.00
2022-10-03T08:08:36.078Z,92.41
2022-10-03T08:09:36.067Z,92.21
2022-10-03T08:10:40.479Z,91.80
2022-10-03T08:11:36.757Z,91.96
2022-10-03T08:12:36.017Z,91.75
2022-10-03T08:13:36.006Z,91.86
2022-10-03T08:14:35.995Z,92.12
2022-10-03T08:15:36.037Z,91.61
2022-10-03T08:16:36.395Z,91.10
2022-10-03T08:17:35.962Z,91.20
2022-10-03T08:18:35.944Z,91.20
2022-10-03T08:19:35.936Z,91.25
2022-10-03T08:20:35.914Z,91.55
2022-10-03T08:21:36.377Z,91.65
2022-10-03T08:22:35.886Z,91.55
2022-10-03T08:23:35.902Z,91.25
2022-10-03T08:24:35.854Z,90.88
2022-10-03T08:25:35.844Z,91.09
2022-10-03T08:26:36.036Z,91.39
2022-10-03T08:27:35.820Z,91.80
2022-10-03T08:28:35.846Z,92.10
2022-10-03T08:29:35.823Z,92.10
2022-10-03T08:30:35.793Z,91.94
2022-10-03T08:31:36.036Z,92.04
2022-10-03T08:32:35.767Z,92.04
2022-10-03T08:33:35.742Z,92.19
2022-10-03T08:34:35.747Z,91.99
2022-10-03T08:35:35.713Z,92.40
2022-10-03T08:36:36.106Z,92.60
2022-10-03T08:37:35.720Z,92.70
2022-10-03T08:38:35.685Z,92.80
2022-10-03T08:39:35.666Z,92.70
2022-10-03T08:40:35.684Z,92.19
2022-10-03T08:41:35.969Z,91.88
2022-10-03T08:42:35.641Z,91.88
2022-10-03T08:43:35.619Z,91.88
2022-10-03T08:44:35.602Z,91.22
2022-10-03T08:45:35.598Z,91.36
2022-10-03T08:46:36.073Z,91.66
2022-10-03T08:47:35.588Z,91.56
2022-10-03T08:48:35.560Z,92.07
2022-10-03T08:49:35.555Z,92.38
2022-10-03T08:50:35.530Z,92.44
2022-10-03T08:51:35.946Z,92.33
2022-10-03T08:52:35.527Z,92.03
2022-10-03T08:53:35.504Z,92.03
2022-10-03T08:54:35.470Z,91.58
2022-10-03T08:55:35.478Z,91.48
2022-10-03T08:56:35.778Z,91.38
2022-10-03T08:57:35.448Z,91.38
2022-10-03T08:58:35.419Z,91.27
2022-10-03T08:59:35.480Z,91.07
2022-10-03T09:00:35.399Z,91.07
2022-10-03T09:01:35.427Z,91.07
2022-10-03T09:02:35.799Z,90.92
2022-10-03T09:03:39.298Z,91.13
2022-10-03T09:04:36.358Z,90.92
2022-10-03T09:05:35.343Z,90.52
2022-10-03T09:06:35.337Z,90.83
2022-10-03T09:07:35.759Z,90.72
2022-10-03T09:08:35.311Z,90.72
2022-10-03T09:09:36.561Z,90.31
2022-10-03T09:10:35.271Z,90.31
2022-10-03T09:11:35.246Z,90.58
2022-10-03T09:12:35.665Z,90.03
2022-10-03T09:13:35.226Z,90.03
2022-10-03T09:14:35.215Z,89.37
2022-10-03T09:15:35.199Z,89.03
2022-10-03T09:16:35.250Z,88.73
2022-10-03T09:17:35.466Z,88.73
2022-10-03T09:18:35.167Z,89.09
2022-10-03T09:19:35.153Z,88.58
2022-10-03T09:20:35.142Z,89.09
2022-10-03T09:21:37.423Z,89.35
2022-10-03T09:22:35.119Z,88.95
2022-10-03T09:23:35.094Z,87.83
2022-10-03T09:24:35.103Z,88.03
2022-10-03T09:25:35.075Z,88.40
2022-10-03T09:26:35.063Z,88.29
2022-10-03T09:27:35.358Z,87.24
2022-10-03T09:28:35.100Z,87.04
2022-10-03T09:29:35.021Z,86.29
2022-10-03T09:30:35.014Z,85.64
2022-10-03T09:31:35.078Z,85.13
2022-10-03T09:32:35.452Z,84.83
2022-10-03T09:33:34.965Z,85.50
2022-10-03T09:34:34.952Z,85.25
2022-10-03T09:35:34.939Z,85.05
2022-10-03T09:36:34.942Z,85.42
2022-10-03T09:37:35.226Z,84.20
2022-10-03T09:38:34.918Z,84.06
2022-10-03T09:39:34.883Z,83.96
2022-10-03T09:40:34.885Z,83.70
2022-10-03T09:41:34.875Z,83.70
2022-10-03T09:42:35.162Z,83.56
2022-10-03T09:43:34.840Z,84.06
2022-10-03T09:44:34.833Z,83.26
2022-10-03T09:45:34.813Z,83.29
2022-10-03T09:46:34.902Z,83.56
2022-10-03T09:47:34.781Z,82.55
2022-10-03T09:48:35.161Z,82.85
2022-10-03T09:49:34.761Z,82.75
2022-10-03T09:50:34.749Z,81.64
2022-10-03T09:51:34.760Z,83.36
2022-10-03T09:52:34.722Z,82.75
2022-10-03T09:53:35.161Z,82.69
2022-10-03T09:54:34.701Z,82.42
2022-10-03T09:55:34.698Z,82.62
2022-10-03T09:56:34.691Z,82.53
2022-10-03T09:57:34.669Z,82.36
2022-10-03T09:58:35.010Z,82.87
2022-10-03T09:59:34.633Z,83.11
2022-10-03T10:00:34.673Z,82.60
2022-10-03T10:01:34.600Z,83.15
2022-10-03T10:02:34.600Z,82.54
2022-10-03T10:03:35.058Z,83.18
2022-10-03T10:04:53.863Z,83.39
2022-10-03T10:05:35.549Z,83.43
2022-10-03T10:06:34.549Z,84.50
2022-10-03T10:07:34.538Z,84.64
2022-10-03T10:08:34.519Z,84.70
2022-10-03T10:09:34.944Z,84.50
2022-10-03T10:10:34.494Z,84.41
2022-10-03T10:11:35.487Z,84.20
2022-10-03T10:12:34.460Z,83.39
2022-10-03T10:13:56.109Z,83.35
2022-10-03T10:14:35.788Z,83.65
2022-10-03T10:15:34.425Z,83.31
2022-10-03T10:16:34.453Z,82.70
2022-10-03T10:17:34.396Z,83.07
2022-10-03T10:18:34.699Z,81.85
2022-10-03T10:19:34.376Z,81.51
2022-10-03T10:20:34.357Z,81.11
2022-10-03T10:21:34.346Z,81.41
2022-10-03T10:22:34.346Z,80.10
2022-10-03T10:23:34.316Z,81.11
2022-10-03T10:24:34.705Z,80.40
2022-10-03T10:25:34.296Z,81.31
2022-10-03T10:26:34.284Z,80.87
2022-10-03T10:27:34.268Z,79.96
2022-10-03T10:28:34.299Z,78.82
2022-10-03T10:29:34.678Z,80.58
2022-10-03T10:30:34.227Z,81.18
2022-10-03T10:31:34.262Z,81.49
2022-10-03T10:32:34.206Z,82.64
2022-10-03T10:33:34.194Z,82.84
2022-10-03T10:34:34.552Z,82.44
2022-10-03T10:35:34.173Z,81.73
2022-10-03T10:36:34.146Z,82.24
2022-10-03T10:37:34.149Z,81.12
2022-10-03T10:38:34.123Z,81.67
2022-10-03T10:39:34.545Z,82.07
2022-10-03T10:40:34.099Z,81.20
2022-10-03T10:41:34.082Z,81.10
2022-10-03T10:42:34.075Z,82.52
2022-10-03T10:43:34.066Z,83.03
2022-10-03T10:44:34.358Z,83.18
2022-10-03T10:45:34.033Z,82.68
2022-10-03T10:46:34.083Z,82.64
2022-10-03T10:47:34.028Z,83.15
2022-10-03T10:48:34.003Z,80.21
2022-10-03T10:49:34.345Z,79.91
2022-10-03T10:50:33.984Z,79.94
2022-10-03T10:51:33.956Z,80.76
2022-10-03T10:52:33.944Z,78.93
2022-10-03T10:53:33.925Z,78.53
2022-10-03T10:54:34.353Z,79.10
2022-10-03T10:55:33.893Z,78.89
2022-10-03T10:56:33.894Z,79.26
2022-10-03T10:57:33.873Z,78.62
2022-10-03T10:58:33.863Z,78.01
2022-10-03T10:59:34.182Z,77.71
2022-10-03T11:00:33.911Z,78.52
2022-10-03T11:01:35.067Z,78.82
2022-10-03T11:02:33.832Z,77.91
2022-10-03T11:03:33.800Z,77.50
2022-10-03T11:04:34.274Z,78.11
2022-10-03T11:05:33.791Z,78.52
2022-10-03T11:06:33.761Z,77.61
2022-10-03T11:07:33.745Z,77.40
2022-10-03T11:08:33.740Z,77.75
2022-10-03T11:09:34.140Z,79.87
2022-10-03T11:10:33.711Z,77.64
2022-10-03T11:11:33.705Z,78.75
2022-10-03T11:12:33.682Z,78.31
2022-10-03T11:13:35.756Z,77.91
2022-10-03T11:14:33.658Z,74.77
2022-10-03T11:15:33.991Z,75.62
2022-10-03T11:16:33.782Z,76.43
2022-10-03T11:17:33.611Z,75.92
2022-10-03T11:18:34.660Z,77.54
2022-10-03T11:19:33.590Z,77.28
2022-10-03T11:20:34.031Z,77.68
2022-10-03T11:21:33.564Z,78.59
2022-10-03T11:22:33.551Z,78.49
2022-10-03T11:23:33.544Z,80.01
2022-10-03T11:24:33.527Z,79.97
2022-10-03T11:25:33.900Z,79.57
2022-10-03T11:26:33.549Z,77.54
2022-10-03T11:27:33.493Z,79.46
2022-10-03T11:28:33.526Z,78.59
2022-10-03T11:29:33.468Z,78.89
2022-10-03T11:30:33.759Z,79.71
2022-10-03T11:31:34.433Z,79.46
2022-10-03T11:32:33.547Z,78.75
2022-10-03T11:33:33.470Z,78.52
2022-10-03T11:34:34.189Z,78.82
2022-10-03T11:35:33.738Z,77.91
2022-10-03T11:36:33.731Z,77.91
2022-10-03T11:37:33.551Z,76.70
2022-10-03T11:38:33.439Z,76.43
2022-10-03T11:39:33.348Z,78.25
2022-10-03T11:40:33.328Z,78.75
2022-10-03T11:41:33.739Z,76.53
2022-10-03T11:42:33.384Z,77.17
2022-10-03T11:43:33.359Z,76.93
2022-10-03T11:44:33.291Z,75.82
2022-10-03T11:45:33.370Z,76.12
2022-10-03T11:46:33.690Z,75.99
2022-10-03T11:47:33.316Z,75.45
2022-10-03T11:48:33.259Z,73.72
2022-10-03T11:49:33.219Z,74.13
2022-10-03T11:50:33.219Z,72.38
2022-10-03T11:51:33.737Z,72.64
2022-10-03T11:52:33.173Z,73.02
2022-10-03T11:53:33.220Z,73.22
2022-10-03T11:54:33.235Z,73.42
2022-10-03T11:55:33.125Z,72.78
2022-10-03T11:56:33.107Z,71.77
2022-10-03T11:57:33.555Z,70.86
2022-10-03T11:58:33.088Z,70.96
2022-10-03T11:59:33.077Z,71.57
2022-10-03T12:00:33.077Z,71.77
2022-10-03T12:01:33.050Z,71.26
2022-10-03T12:02:33.430Z,71.67
2022-10-03T12:03:33.056Z,70.12
2022-10-03T12:04:33.019Z,69.72
2022-10-03T12:05:32.994Z,68.57
2022-10-03T12:06:33.014Z,68.48
2022-10-03T12:07:33.548Z,68.61
2022-10-03T12:08:32.964Z,68.81
2022-10-03T12:09:32.956Z,69.62
2022-10-03T12:10:33.200Z,68.71
2022-10-03T12:11:33.016Z,67.80
2022-10-03T12:12:33.485Z,69.45
2022-10-03T12:13:32.894Z,70.15
2022-10-03T12:14:32.885Z,70.59
2022-10-03T12:15:33.085Z,70.89
2022-10-03T12:16:33.239Z,71.50
2022-10-03T12:17:32.863Z,71.70
2022-10-03T12:18:33.245Z,72.21
2022-10-03T12:19:32.827Z,72.51
2022-10-03T12:20:32.826Z,73.02
2022-10-03T12:21:32.817Z,73.46
2022-10-03T12:22:32.782Z,71.94
2022-10-03T12:23:33.208Z,72.55
2022-10-03T12:24:32.756Z,72.28
2022-10-03T12:25:32.737Z,72.21
2022-10-03T12:26:32.776Z,72.04
2022-10-03T12:27:32.782Z,72.85
2022-10-03T12:28:33.177Z,73.69
2022-10-03T12:29:32.741Z,73.59
2022-10-03T12:30:32.695Z,73.93
2022-10-03T12:31:32.949Z,74.24
2022-10-03T12:32:35.648Z,75.38
2022-10-03T12:33:33.129Z,75.89
2022-10-03T12:34:32.644Z,76.36
2022-10-03T12:35:33.023Z,74.74
2022-10-03T12:36:32.597Z,74.84
2022-10-03T12:37:32.701Z,75.65
2022-10-03T12:38:33.143Z,74.64
2022-10-03T12:39:32.555Z,76.20
2022-10-03T12:40:32.556Z,75.69
2022-10-03T12:41:32.535Z,75.49
2022-10-03T12:42:32.585Z,75.89
2022-10-03T12:43:32.515Z,76.46
2022-10-03T12:44:32.970Z,76.26
2022-10-03T12:45:32.513Z,75.25
2022-10-03T12:46:32.631Z,76.16
2022-10-03T12:47:54.345Z,74.74
2022-10-03T12:48:33.964Z,73.93
2022-10-03T12:49:32.866Z,73.46
2022-10-03T12:50:32.448Z,73.53
2022-10-03T12:51:32.409Z,73.53
2022-10-03T12:52:33.092Z,73.83